Time;durP1;ratioP1;P1;durP2;ratioP2;P2;SDS_P1;SDS_P2;PMS_P1;PMS_P2;Temp;Humidity;BMP_temperature;BMP_pressure;BME280_temperature;BME280_humidity;BME280_pressure;Samples;Min_cycle;Max_cycle;Signal;HPM_P1;HPM_P2
2022/04/04 00:00:58;;;;;;;3.37;2.83;;;1.30;99.90;;;;;;4966438;28;20191;-78
2022/04/04 00:03:24;;;;;;;5.37;3.83;;;1.20;99.90;;;;;;4965934;28;20181;-78
2022/04/04 00:05:49;;;;;;;4.10;3.70;;;1.20;99.90;;;;;;4965936;28;20177;-78
2022/04/04 00:08:15;;;;;;;3.97;3.57;;;1.20;99.90;;;;;;4965565;28;20209;-78
2022/04/04 00:10:40;;;;;;;4.53;3.57;;;1.20;99.90;;;;;;4966038;28;20885;-78
2022/04/04 00:13:06;;;;;;;3.53;3.23;;;1.20;99.90;;;;;;4948240;28;20213;-78
2022/04/04 00:15:31;;;;;;;3.87;3.47;;;1.20;99.90;;;;;;4965930;28;20181;-78
2022/04/04 00:18:04;;;;;;;4.43;3.40;;;1.20;99.90;;;;;;4965113;28;20619;-78
2022/04/04 00:20:29;;;;;;;4.77;3.40;;;1.10;99.90;;;;;;4965902;28;20778;-78
2022/04/04 00:22:55;;;;;;;5.13;4.33;;;1.20;99.90;;;;;;4965037;28;20680;-78
2022/04/04 00:25:20;;;;;;;4.10;3.70;;;1.30;99.90;;;;;;4965717;28;20557;-78
2022/04/04 00:27:46;;;;;;;4.43;3.50;;;1.20;99.90;;;;;;4965309;28;20261;-78
2022/04/04 00:30:12;;;;;;;4.07;3.67;;;1.20;99.90;;;;;;4947773;28;20185;-78
2022/04/04 00:32:37;;;;;;;4.10;3.73;;;1.30;99.90;;;;;;4964551;28;20649;-78
2022/04/04 00:35:03;;;;;;;4.60;4.10;;;1.30;99.90;;;;;;4947499;28;20509;-77
2022/04/04 00:37:29;;;;;;;4.37;3.50;;;1.20;99.90;;;;;;4964460;28;20181;-78
2022/04/04 00:39:54;;;;;;;5.33;4.23;;;1.30;99.90;;;;;;4947396;28;20565;-78
2022/04/04 00:42:20;;;;;;;4.43;3.80;;;1.30;99.90;;;;;;4947311;28;20331;-78
2022/04/04 00:44:46;;;;;;;4.33;3.87;;;1.10;99.90;;;;;;4965568;28;20180;-78
2022/04/04 00:47:12;;;;;;;4.73;4.00;;;1.10;99.90;;;;;;4964610;28;20267;-78
2022/04/04 00:49:38;;;;;;;5.67;4.40;;;1.10;99.90;;;;;;4965068;28;20228;-78
2022/04/04 00:52:05;;;;;;;4.30;3.90;;;1.10;99.90;;;;;;4965456;28;20566;-78
2022/04/04 00:54:31;;;;;;;5.53;4.07;;;1.10;99.90;;;;;;4964648;28;20172;-78
2022/04/04 00:56:57;;;;;;;4.77;3.97;;;1.10;99.90;;;;;;4964149;28;20339;-78
2022/04/04 00:59:23;;;;;;;5.63;4.60;;;1.10;99.90;;;;;;4964624;28;20332;-78
2022/04/04 01:01:49;;;;;;;6.00;4.80;;;1.20;99.90;;;;;;4964239;28;20181;-78
2022/04/04 01:04:16;;;;;;;3.80;3.50;;;1.10;99.90;;;;;;4964284;28;20192;-78
2022/04/04 01:06:43;;;;;;;4.93;4.40;;;1.20;99.90;;;;;;4964283;28;20181;-78
2022/04/04 01:09:14;;;;;;;6.23;4.67;;;1.10;99.90;;;;;;4963731;28;20226;-78
2022/04/04 01:12:08;;;;;;;5.40;4.77;;;1.10;99.90;;;;;;4963155;28;20219;-78
2022/04/04 01:14:46;;;;;;;7.40;4.57;;;1.20;99.90;;;;;;4962377;28;20177;-78
2022/04/04 01:17:12;;;;;;;5.73;4.33;;;1.30;99.90;;;;;;4962111;28;20180;-77
2022/04/04 01:19:38;;;;;;;6.00;4.83;;;1.20;99.90;;;;;;4961135;28;20211;-77
2022/04/04 01:22:07;;;;;;;6.33;4.63;;;1.30;99.90;;;;;;4961658;28;20189;-77
2022/04/04 01:24:33;;;;;;;5.43;4.77;;;1.20;99.90;;;;;;4964232;28;20241;-79
2022/04/04 01:26:59;;;;;;;5.40;4.80;;;1.20;99.90;;;;;;4946277;28;20188;-78
2022/04/04 01:29:24;;;;;;;5.77;4.83;;;1.20;99.90;;;;;;4964626;28;20224;-78
2022/04/04 01:31:50;;;;;;;5.40;4.90;;;1.30;99.90;;;;;;4964341;28;20216;-78
2022/04/04 01:34:21;;;;;;;5.97;5.37;;;1.20;99.90;;;;;;4964730;28;20620;-78
2022/04/04 01:36:46;;;;;;;5.63;4.80;;;1.20;99.90;;;;;;4964057;28;20188;-78
2022/04/04 01:39:12;;;;;;;5.03;4.53;;;1.30;99.90;;;;;;4964841;28;20280;-78
2022/04/04 01:41:38;;;;;;;5.50;4.67;;;1.30;99.90;;;;;;4964196;28;20239;-78
2022/04/04 01:44:04;;;;;;;6.10;5.20;;;1.30;99.90;;;;;;4946801;28;20196;-78
2022/04/04 01:46:29;;;;;;;6.50;5.33;;;1.20;99.90;;;;;;4963193;28;20283;-78
2022/04/04 01:48:58;;;;;;;7.27;5.20;;;1.30;99.90;;;;;;4964360;28;20299;-79
2022/04/04 01:51:24;;;;;;;5.93;5.33;;;1.30;99.90;;;;;;4964714;28;20197;-78
2022/04/04 01:53:50;;;;;;;6.67;5.33;;;1.40;99.90;;;;;;4963750;28;20384;-78
2022/04/04 01:56:17;;;;;;;5.73;5.07;;;1.40;99.90;;;;;;4945689;28;20189;-78
2022/04/04 01:58:42;;;;;;;5.87;4.97;;;1.50;99.90;;;;;;4963374;28;20212;-78
2022/04/04 02:01:16;;;;;;;6.73;5.37;;;1.40;99.90;;;;;;4964243;28;20189;-78
2022/04/04 02:03:43;;;;;;;7.23;6.07;;;1.40;99.90;;;;;;4962236;28;20272;-78
2022/04/04 02:06:09;;;;;;;6.33;5.20;;;1.50;99.90;;;;;;4964342;28;20544;-78
2022/04/04 02:08:35;;;;;;;6.37;5.70;;;1.30;99.90;;;;;;4948598;28;20209;-79
2022/04/04 02:11:02;;;;;;;6.53;5.43;;;1.40;99.90;;;;;;4949832;28;20203;-78
2022/04/04 02:13:28;;;;;;;6.10;5.50;;;1.50;99.90;;;;;;4966716;28;20209;-78
2022/04/04 02:15:56;;;;;;;6.07;5.07;;;1.40;99.90;;;;;;4950386;28;20185;-78
2022/04/04 02:18:22;;;;;;;5.87;5.10;;;1.30;99.90;;;;;;4966705;28;20284;-78
2022/04/04 02:20:48;;;;;;;6.87;6.17;;;1.40;99.90;;;;;;4967062;28;20586;-78
2022/04/04 02:23:18;;;;;;;6.77;5.70;;;1.40;99.90;;;;;;4966689;28;20196;-79
2022/04/04 02:25:44;;;;;;;6.87;5.90;;;1.40;99.90;;;;;;4968825;28;20191;-79
2022/04/04 02:28:10;;;;;;;7.50;5.73;;;1.40;99.90;;;;;;4968502;28;20258;-78
2022/04/04 02:30:36;;;;;;;8.60;6.30;;;1.40;99.90;;;;;;4969711;28;20193;-78
2022/04/04 02:33:01;;;;;;;7.87;6.27;;;1.40;99.90;;;;;;4951757;28;20223;-79
2022/04/04 02:35:27;;;;;;;6.80;6.10;;;1.40;99.90;;;;;;4969898;28;20265;-78
2022/04/04 02:37:53;;;;;;;7.97;6.40;;;1.40;99.90;;;;;;4968266;28;20204;-78
2022/04/04 02:40:19;;;;;;;7.97;6.17;;;1.50;99.90;;;;;;4969630;28;20264;-78
2022/04/04 02:42:46;;;;;;;7.50;6.43;;;1.50;99.90;;;;;;4951530;28;20185;-79
2022/04/04 02:45:12;;;;;;;7.77;6.47;;;1.50;99.90;;;;;;4970015;28;20245;-78
2022/04/04 02:47:38;;;;;;;7.67;6.43;;;1.40;99.90;;;;;;4969697;28;20217;-78
2022/04/04 02:50:05;;;;;;;9.10;6.83;;;1.30;99.90;;;;;;4969330;28;20788;-78
2022/04/04 02:52:30;;;;;;;9.63;7.53;;;1.30;99.90;;;;;;4968169;28;20204;-78
2022/04/04 02:54:56;;;;;;;10.00;7.50;;;1.40;99.90;;;;;;4967688;28;20193;-78
2022/04/04 02:57:21;;;;;;;8.60;6.80;;;1.50;99.90;;;;;;4968870;28;20193;-79
2022/04/04 02:59:47;;;;;;;9.07;7.13;;;1.50;99.90;;;;;;4968953;28;20186;-78
2022/04/04 03:02:13;;;;;;;11.27;7.40;;;1.50;99.90;;;;;;4969422;28;20204;-78
2022/04/04 03:04:40;;;;;;;9.00;7.30;;;1.50;99.90;;;;;;4968740;28;20716;-79
2022/04/04 03:07:07;;;;;;;10.40;7.60;;;1.50;99.90;;;;;;4969356;28;20192;-78
2022/04/04 03:09:33;;;;;;;10.33;8.50;;;1.50;99.90;;;;;;4969142;28;20282;-78
2022/04/04 03:11:58;;;;;;;9.07;8.00;;;1.50;99.90;;;;;;4969410;28;20240;-78
2022/04/04 03:14:24;;;;;;;10.37;7.50;;;1.50;99.90;;;;;;4968681;28;20270;-78
2022/04/04 03:16:50;;;;;;;9.97;8.23;;;1.50;99.90;;;;;;4969005;28;20185;-78
2022/04/04 03:19:16;;;;;;;11.93;8.70;;;1.60;99.90;;;;;;4949588;28;20205;-78
2022/04/04 03:21:41;;;;;;;11.13;8.20;;;1.60;99.90;;;;;;4969235;28;20188;-78
2022/04/04 03:24:07;;;;;;;12.00;8.97;;;1.60;99.90;;;;;;4969188;28;20804;-78
2022/04/04 03:26:33;;;;;;;11.27;8.73;;;1.60;99.90;;;;;;4951449;28;20189;-79
2022/04/04 03:28:58;;;;;;;10.77;8.57;;;1.60;99.90;;;;;;4950616;28;20292;-79
2022/04/04 03:31:24;;;;;;;11.93;8.07;;;1.70;99.90;;;;;;4951396;28;20618;-78
2022/04/04 03:33:50;;;;;;;10.73;8.77;;;1.70;99.90;;;;;;4950449;28;20179;-79
2022/04/04 03:36:16;;;;;;;10.97;8.33;;;1.80;99.90;;;;;;4981305;28;20259;-78
2022/04/04 03:38:42;;;;;;;9.73;8.30;;;1.80;99.90;;;;;;4968691;28;20196;-79
2022/04/04 03:41:07;;;;;;;11.57;7.97;;;1.80;99.90;;;;;;4950415;28;20192;-78
2022/04/04 03:43:33;;;;;;;10.30;8.60;;;1.70;99.90;;;;;;4968245;28;20225;-79
2022/04/04 03:45:58;;;;;;;11.30;9.13;;;1.80;99.90;;;;;;4969051;28;20197;-78
2022/04/04 03:48:24;;;;;;;10.13;8.17;;;1.70;99.90;;;;;;4967719;28;20240;-78
2022/04/04 03:50:54;;;;;;;11.40;8.07;;;1.70;99.90;;;;;;4968179;28;20189;-79
2022/04/04 03:53:21;;;;;;;10.43;8.53;;;1.80;99.90;;;;;;4980334;28;20201;-78
2022/04/04 03:55:48;;;;;;;10.53;8.73;;;1.80;99.90;;;;;;4967844;28;20192;-78
2022/04/04 03:58:14;;;;;;;12.20;9.57;;;1.80;99.90;;;;;;4968258;28;20444;-78
2022/04/04 04:00:41;;;;;;;11.20;9.20;;;1.80;99.90;;;;;;4968436;28;20227;-78
2022/04/04 04:03:08;;;;;;;12.40;9.03;;;1.70;99.90;;;;;;4967970;28;20188;-78
2022/04/04 04:05:34;;;;;;;10.03;8.03;;;1.80;99.90;;;;;;4949581;28;20185;-79
2022/04/04 04:07:59;;;;;;;11.87;8.97;;;1.70;99.90;;;;;;4949904;28;20212;-79
2022/04/04 04:10:25;;;;;;;12.43;9.83;;;1.60;99.90;;;;;;4950035;28;20185;-79
2022/04/04 04:12:51;;;;;;;12.47;9.50;;;1.60;99.90;;;;;;4965500;28;20705;-79
2022/04/04 04:15:19;;;;;;;11.47;8.63;;;1.60;99.90;;;;;;4967419;28;20754;-78
2022/04/04 04:17:45;;;;;;;13.50;9.13;;;1.60;99.90;;;;;;4967419;28;20598;-78
2022/04/04 04:20:20;;;;;;;13.87;9.87;;;1.80;99.90;;;;;;4964707;28;20181;-77
2022/04/04 04:22:52;;;;;;;12.57;9.20;;;1.80;99.90;;;;;;4967330;28;20177;-77
2022/04/04 04:25:19;;;;;;;13.10;10.27;;;1.70;99.90;;;;;;4965498;28;20554;-78
2022/04/04 04:27:46;;;;;;;13.60;9.63;;;1.80;99.90;;;;;;4966474;28;20208;-78
2022/04/04 04:30:13;;;;;;;14.07;10.07;;;1.80;99.90;;;;;;4966239;28;20184;-78
2022/04/04 04:32:43;;;;;;;13.50;9.47;;;1.70;99.90;;;;;;4967664;28;20201;-78
2022/04/04 04:35:11;;;;;;;13.83;11.10;;;1.60;99.90;;;;;;4967193;28;20650;-78
2022/04/04 04:37:36;;;;;;;14.23;10.73;;;1.60;99.90;;;;;;4966765;28;20169;-78
2022/04/04 04:40:03;;;;;;;13.97;10.53;;;1.60;99.90;;;;;;4967354;28;20189;-78
2022/04/04 04:42:29;;;;;;;12.27;9.23;;;1.70;99.90;;;;;;4949412;28;20273;-78
2022/04/04 04:44:55;;;;;;;13.47;9.70;;;1.70;99.90;;;;;;4966942;28;20518;-78
2022/04/04 04:47:21;;;;;;;13.17;10.10;;;1.70;99.90;;;;;;4966828;28;20698;-78
2022/04/04 04:49:48;;;;;;;11.90;9.47;;;1.60;99.90;;;;;;4967179;28;20254;-78
2022/04/04 04:52:14;;;;;;;12.17;9.67;;;1.70;99.90;;;;;;4966923;28;20213;-78
2022/04/04 04:54:40;;;;;;;11.07;9.17;;;1.60;99.90;;;;;;4948393;28;20185;-77
2022/04/04 04:57:06;;;;;;;11.70;9.77;;;1.70;99.90;;;;;;4965651;28;20235;-78
2022/04/04 04:59:31;;;;;;;10.33;8.43;;;1.70;99.90;;;;;;4966095;28;20619;-78
2022/04/04 05:01:57;;;;;;;13.47;9.50;;;1.80;99.90;;;;;;4965830;28;20193;-78
2022/04/04 05:04:22;;;;;;;12.90;9.20;;;1.80;99.90;;;;;;4948114;28;20185;-78
2022/04/04 05:06:49;;;;;;;11.97;9.30;;;1.80;99.90;;;;;;4964624;28;20189;-78
2022/04/04 05:09:16;;;;;;;11.57;8.57;;;1.90;99.90;;;;;;4964895;28;20205;-77
2022/04/04 05:11:42;;;;;;;12.80;9.40;;;1.90;99.90;;;;;;4948261;28;20659;-78
2022/04/04 05:14:15;;;;;;;13.07;9.27;;;1.90;99.90;;;;;;4965559;28;20223;-77
2022/04/04 05:16:44;;;;;;;11.50;8.43;;;2.00;99.90;;;;;;4965544;28;20209;-77
2022/04/04 05:19:11;;;;;;;14.37;9.30;;;2.00;99.90;;;;;;4965177;28;20208;-78
2022/04/04 05:21:38;;;;;;;10.93;8.37;;;2.00;99.90;;;;;;4966064;28;20177;-77
2022/04/04 05:24:07;;;;;;;11.93;9.00;;;2.00;99.90;;;;;;4965778;28;20253;-77
2022/04/04 05:26:33;;;;;;;10.60;8.57;;;2.10;99.90;;;;;;4966008;28;20682;-78
2022/04/04 05:28:59;;;;;;;10.17;8.07;;;2.10;99.90;;;;;;4965290;28;20205;-78
2022/04/04 05:31:25;;;;;;;12.10;8.97;;;2.10;99.90;;;;;;4966070;28;20549;-78
2022/04/04 05:33:51;;;;;;;10.90;8.53;;;2.20;99.90;;;;;;4965181;28;20209;-78
2022/04/04 05:36:17;;;;;;;10.83;8.57;;;2.20;99.90;;;;;;4947946;28;20677;-79
2022/04/04 05:38:43;;;;;;;13.93;9.03;;;2.20;99.90;;;;;;4945230;28;20223;-79
2022/04/04 05:41:09;;;;;;;12.70;9.33;;;2.30;99.90;;;;;;4951050;28;20718;-78
2022/04/04 05:43:34;;;;;;;11.90;8.90;;;2.30;99.90;;;;;;4966737;28;20185;-77
2022/04/04 05:46:00;;;;;;;16.20;9.10;;;2.40;99.90;;;;;;4969520;28;20239;-78
2022/04/04 05:48:30;;;;;;;11.53;8.67;;;2.40;99.90;;;;;;4967174;28;20220;-77
2022/04/04 05:50:56;;;;;;;10.40;8.07;;;2.50;99.90;;;;;;4949795;28;20182;-77
2022/04/04 05:53:22;;;;;;;11.23;8.07;;;2.50;99.90;;;;;;4966533;28;20208;-77
2022/04/04 05:55:47;;;;;;;9.63;7.80;;;2.60;99.90;;;;;;4966899;28;20220;-77
2022/04/04 05:58:13;;;;;;;10.63;7.97;;;2.60;99.90;;;;;;4966809;28;20205;-77
2022/04/04 06:00:38;;;;;;;9.93;8.30;;;2.70;99.90;;;;;;4967776;28;20217;-78
2022/04/04 06:03:04;;;;;;;9.80;8.40;;;2.70;99.90;;;;;;4965843;28;20199;-78
2022/04/04 06:05:30;;;;;;;8.90;7.37;;;2.80;99.90;;;;;;4947854;28;20630;-78
2022/04/04 06:07:56;;;;;;;10.50;8.27;;;2.80;99.90;;;;;;4947292;28;20766;-78
2022/04/04 06:10:21;;;;;;;9.47;7.83;;;2.90;99.90;;;;;;4947523;28;20300;-78
2022/04/04 06:12:47;;;;;;;10.47;6.67;;;3.00;99.90;;;;;;4965257;28;20659;-77
2022/04/04 06:15:16;;;;;;;11.07;8.17;;;3.00;99.90;;;;;;4947172;28;20686;-78
2022/04/04 06:17:43;;;;;;;10.30;7.70;;;3.00;99.90;;;;;;4965751;28;20539;-79
2022/04/04 06:20:10;;;;;;;11.00;8.20;;;3.00;99.90;;;;;;4950107;28;20177;-77
2022/04/04 06:22:36;;;;;;;9.40;7.67;;;3.20;99.90;;;;;;4970336;28;20583;-79
2022/04/04 06:25:04;;;;;;;10.47;7.63;;;3.20;99.90;;;;;;4952725;28;20193;-77
2022/04/04 06:27:30;;;;;;;9.63;7.87;;;3.30;99.90;;;;;;4967417;28;20256;-78
2022/04/04 06:29:56;;;;;;;9.03;7.33;;;3.30;99.90;;;;;;4967591;28;20578;-77
2022/04/04 06:32:24;;;;;;;9.40;7.00;;;3.40;99.90;;;;;;4967689;28;20208;-78
2022/04/04 06:34:50;;;;;;;8.23;6.57;;;3.40;99.90;;;;;;4967889;28;20272;-77
2022/04/04 06:37:16;;;;;;;8.60;7.13;;;3.50;99.90;;;;;;4967328;28;20295;-78
2022/04/04 06:39:42;;;;;;;10.37;6.53;;;3.60;99.90;;;;;;4949741;28;20290;-77
2022/04/04 06:42:07;;;;;;;7.70;6.30;;;3.60;99.90;;;;;;4967620;28;21243;-78
2022/04/04 06:44:33;;;;;;;8.33;6.47;;;3.60;99.90;;;;;;4967546;28;20268;-77
2022/04/04 06:46:59;;;;;;;8.47;6.20;;;3.60;99.90;;;;;;4967949;28;20188;-78
2022/04/04 06:49:25;;;;;;;8.57;6.53;;;3.70;99.90;;;;;;4967947;28;20208;-77
2022/04/04 06:51:51;;;;;;;9.13;6.80;;;3.70;99.90;;;;;;4949747;28;20217;-77
2022/04/04 06:54:18;;;;;;;9.00;6.33;;;3.90;99.90;;;;;;4967216;28;20234;-79
2022/04/04 06:56:46;;;;;;;8.63;7.10;;;3.90;99.90;;;;;;4950045;28;20181;-78
2022/04/04 06:59:13;;;;;;;8.57;6.87;;;3.90;99.90;;;;;;4948365;28;20679;-78
2022/04/04 07:01:39;;;;;;;8.83;7.00;;;3.90;99.90;;;;;;4966198;28;20211;-78
2022/04/04 07:04:05;;;;;;;8.53;6.53;;;4.00;99.90;;;;;;4966091;28;20185;-78
2022/04/04 07:06:30;;;;;;;9.10;7.10;;;4.10;99.90;;;;;;4965500;28;20192;-78
2022/04/04 07:08:56;;;;;;;9.00;7.40;;;4.10;99.90;;;;;;4964079;28;20205;-79
2022/04/04 07:11:22;;;;;;;9.07;7.03;;;4.10;99.90;;;;;;4964744;28;20619;-78
2022/04/04 07:13:49;;;;;;;9.33;6.40;;;4.20;99.90;;;;;;4964361;28;20273;-78
2022/04/04 07:16:16;;;;;;;8.53;6.73;;;4.30;99.90;;;;;;4946983;28;20185;-78
2022/04/04 07:18:41;;;;;;;9.40;7.80;;;4.20;99.90;;;;;;4950631;28;20213;-77
2022/04/04 07:21:07;;;;;;;9.50;6.53;;;4.20;99.90;;;;;;4964574;28;20618;-78
2022/04/04 07:23:33;;;;;;;9.20;7.70;;;4.20;99.90;;;;;;4965036;28;20428;-78
2022/04/04 07:25:58;;;;;;;7.47;6.67;;;4.20;99.90;;;;;;4965541;28;20867;-78
2022/04/04 07:28:24;;;;;;;8.23;6.43;;;4.20;99.90;;;;;;4964164;28;20201;-77
2022/04/04 07:30:52;;;;;;;8.70;7.23;;;4.40;99.90;;;;;;4964537;28;20651;-77
2022/04/04 07:33:18;;;;;;;9.30;6.93;;;4.30;99.90;;;;;;4946521;28;20209;-78
2022/04/04 07:35:45;;;;;;;8.57;6.90;;;4.30;99.90;;;;;;4964190;28;20186;-77
2022/04/04 07:38:10;;;;;;;9.37;7.77;;;4.30;99.90;;;;;;4946206;28;20221;-78
2022/04/04 07:40:36;;;;;;;10.10;7.83;;;4.30;99.90;;;;;;4965032;28;20177;-78
2022/04/04 07:43:02;;;;;;;10.60;7.50;;;4.50;99.90;;;;;;4947632;28;20193;-80
2022/04/04 07:45:30;;;;;;;10.17;7.03;;;4.50;99.90;;;;;;4948302;28;20193;-78
2022/04/04 07:47:56;;;;;;;9.20;6.87;;;4.50;99.90;;;;;;4946714;28;20225;-78
2022/04/04 07:50:22;;;;;;;11.07;7.10;;;4.50;99.90;;;;;;4963501;28;20272;-78
2022/04/04 07:52:47;;;;;;;9.23;6.70;;;4.70;99.90;;;;;;4965339;28;20280;-78
2022/04/04 07:55:13;;;;;;;8.90;6.57;;;4.70;99.90;;;;;;4965028;28;20638;-79
2022/04/04 07:57:39;;;;;;;8.97;6.57;;;4.80;99.90;;;;;;4964515;28;20263;-78
2022/04/04 08:00:07;;;;;;;8.07;6.20;;;4.80;99.90;;;;;;4948348;28;20188;-78
2022/04/04 08:02:33;;;;;;;8.07;6.37;;;5.00;99.90;;;;;;4947449;28;20204;-78
2022/04/04 08:04:59;;;;;;;7.50;6.43;;;5.00;99.90;;;;;;4964003;28;20846;-78
2022/04/04 08:07:24;;;;;;;8.70;6.37;;;5.00;99.90;;;;;;4964972;28;20242;-78
2022/04/04 08:09:51;;;;;;;9.03;6.47;;;5.20;99.90;;;;;;4965593;28;20193;-78
2022/04/04 08:12:16;;;;;;;7.87;6.57;;;5.20;99.90;;;;;;4949699;28;20690;-78
2022/04/04 08:14:44;;;;;;;9.17;6.17;;;5.30;99.90;;;;;;4964441;28;20192;-77
2022/04/04 08:17:10;;;;;;;7.77;5.90;;;5.30;99.90;;;;;;4933745;28;20195;-79
2022/04/04 08:19:35;;;;;;;7.70;6.23;;;5.30;99.90;;;;;;4949611;28;20201;-78
2022/04/04 08:22:01;;;;;;;9.43;6.83;;;5.40;99.90;;;;;;4968197;28;20557;-79
2022/04/04 08:24:27;;;;;;;7.27;5.93;;;5.50;99.90;;;;;;4967783;28;20180;-78
2022/04/04 08:26:53;;;;;;;9.57;6.60;;;5.50;99.90;;;;;;4967129;28;20659;-79
2022/04/04 08:29:19;;;;;;;8.73;6.60;;;5.50;99.90;;;;;;4966884;28;20197;-78
2022/04/04 08:31:45;;;;;;;8.37;6.47;;;5.50;99.90;;;;;;4948931;28;20200;-78
2022/04/04 08:34:10;;;;;;;7.73;6.13;;;5.50;99.90;;;;;;4965904;28;20189;-79
2022/04/04 08:36:36;;;;;;;7.37;6.33;;;5.50;99.90;;;;;;4966081;28;20196;-79
2022/04/04 08:39:02;;;;;;;8.10;6.57;;;5.40;99.90;;;;;;4947685;28;20213;-78
2022/04/04 08:41:32;;;;;;;10.13;7.40;;;5.30;99.90;;;;;;4947803;28;20496;-77
2022/04/04 08:44:01;;;;;;;9.40;6.93;;;5.40;99.90;;;;;;4962783;28;20280;-78
2022/04/04 08:46:26;;;;;;;8.17;6.47;;;5.60;99.90;;;;;;4961558;28;20185;-77
2022/04/04 08:48:55;;;;;;;8.10;6.23;;;5.70;99.90;;;;;;4944950;28;20220;-78
2022/04/04 08:51:21;;;;;;;7.23;6.20;;;5.70;99.90;;;;;;4944642;28;20185;-79
2022/04/04 08:53:47;;;;;;;7.47;6.27;;;5.70;99.90;;;;;;4945830;28;20212;-77
2022/04/04 08:56:13;;;;;;;8.40;6.50;;;5.80;99.90;;;;;;4961794;28;20660;-77
2022/04/04 08:58:38;;;;;;;6.40;5.70;;;5.80;99.90;;;;;;4946302;28;20201;-78
2022/04/04 09:01:04;;;;;;;7.30;6.43;;;5.70;99.90;;;;;;4961562;28;20687;-79
2022/04/04 09:03:31;;;;;;;8.87;5.97;;;5.70;99.90;;;;;;4962646;28;20189;-78
2022/04/04 09:06:03;;;;;;;7.40;5.80;;;5.60;99.90;;;;;;4962662;28;20280;-77
2022/04/04 09:08:41;;;;;;;6.90;5.80;;;5.70;99.90;;;;;;4961967;28;20365;-78
2022/04/04 09:11:07;;;;;;;6.60;5.83;;;5.60;99.90;;;;;;4963421;28;20200;-79
2022/04/04 09:13:34;;;;;;;6.03;5.17;;;5.70;99.90;;;;;;4962408;28;20546;-78
2022/04/04 09:16:04;;;;;;;7.63;5.30;;;5.50;99.90;;;;;;4946254;28;20185;-78
2022/04/04 09:18:45;;;;;;;6.90;5.27;;;5.50;99.90;;;;;;4963518;28;20216;-78
2022/04/04 09:21:20;;;;;;;6.33;4.87;;;5.50;99.90;;;;;;4962973;28;20181;-78
2022/04/04 09:23:46;;;;;;;10.23;5.57;;;5.60;99.90;;;;;;4946912;28;20187;-78
2022/04/04 09:26:36;;;;;;;5.70;5.10;;;5.70;99.90;;;;;;4962729;28;20189;-78
2022/04/04 09:29:05;;;;;;;7.23;5.47;;;5.60;99.90;;;;;;4957600;28;20288;-78
2022/04/04 09:31:31;;;;;;;5.83;4.77;;;5.60;99.90;;;;;;4963536;28;20185;-78
2022/04/04 09:34:03;;;;;;;5.20;4.27;;;5.70;99.90;;;;;;4963176;28;20698;-79
2022/04/04 09:36:29;;;;;;;5.97;4.47;;;5.70;99.90;;;;;;4963372;28;20192;-78
2022/04/04 09:39:05;;;;;;;7.10;5.03;;;5.70;99.90;;;;;;4946612;28;20693;-78
2022/04/04 09:41:32;;;;;;;5.00;4.23;;;5.90;99.90;;;;;;4961742;28;20651;-78
2022/04/04 09:44:02;;;;;;;5.43;4.27;;;5.90;99.90;;;;;;4961932;28;20189;-79
2022/04/04 09:46:35;;;;;;;6.80;4.30;;;6.10;99.90;;;;;;4962533;28;20579;-77
2022/04/04 09:49:16;;;;;;;4.20;3.80;;;6.10;99.90;;;;;;4961051;28;21007;-78
2022/04/04 09:51:53;;;;;;;4.40;3.90;;;6.00;99.90;;;;;;4944132;28;20620;-78
2022/04/04 09:54:29;;;;;;;4.57;3.87;;;6.00;99.90;;;;;;4961121;28;20267;-78
2022/04/04 09:57:16;;;;;;;4.50;3.80;;;5.90;99.90;;;;;;4960265;28;20193;-78
2022/04/04 09:59:42;;;;;;;4.90;3.87;;;5.80;99.90;;;;;;4941341;28;20851;-77
2022/04/04 10:02:11;;;;;;;5.00;3.57;;;5.80;99.90;;;;;;4960221;28;20615;-77
2022/04/04 10:04:38;;;;;;;4.90;3.53;;;5.60;99.90;;;;;;4959215;28;20331;-77
2022/04/04 10:07:08;;;;;;;5.47;3.67;;;5.80;99.90;;;;;;4960902;28;20197;-77
2022/04/04 10:09:35;;;;;;;5.67;4.13;;;5.80;99.90;;;;;;4959279;28;20217;-77
2022/04/04 10:12:02;;;;;;;5.70;3.67;;;5.80;99.90;;;;;;4960124;28;20221;-77
2022/04/04 10:14:31;;;;;;;3.93;3.47;;;5.70;99.90;;;;;;4958473;28;20200;-77
2022/04/04 10:16:57;;;;;;;4.17;3.77;;;5.80;99.90;;;;;;4958586;28;20193;-78
2022/04/04 10:19:27;;;;;;;4.13;3.60;;;5.90;99.90;;;;;;4959454;28;20266;-77
2022/04/04 10:21:52;;;;;;;12.87;4.10;;;6.00;99.90;;;;;;4959567;28;20185;-78
2022/04/04 10:24:19;;;;;;;4.10;3.70;;;6.00;99.90;;;;;;4942335;28;20186;-78
2022/04/04 10:26:50;;;;;;;3.90;3.33;;;6.00;99.90;;;;;;4962156;28;20181;-77
2022/04/04 10:29:18;;;;;;;4.73;3.60;;;6.00;99.90;;;;;;4957062;28;20211;-77
2022/04/04 10:31:46;;;;;;;5.50;3.73;;;6.20;99.90;;;;;;4967211;28;20184;-77
2022/04/04 10:34:17;;;;;;;3.97;3.47;;;6.10;99.90;;;;;;4967306;28;20195;-78
2022/04/04 10:37:03;;;;;;;5.33;3.50;;;6.20;99.90;;;;;;4966558;28;20189;-78
2022/04/04 10:39:48;;;;;;;5.17;4.10;;;6.00;99.90;;;;;;4963429;28;20213;-77
2022/04/04 10:42:36;;;;;;;4.53;3.90;;;6.10;99.90;;;;;;4964435;28;20189;-79
2022/04/04 10:45:10;;;;;;;4.67;3.57;;;6.20;99.90;;;;;;4947006;28;20197;-78
2022/04/04 10:47:44;;;;;;;5.57;4.00;;;6.20;99.90;;;;;;4963571;28;21191;-78
2022/04/04 10:50:33;;;;;;;5.23;3.80;;;6.30;99.90;;;;;;4966363;28;20656;-78
2022/04/04 10:53:03;;;;;;;5.23;3.97;;;6.40;99.90;;;;;;4966937;28;20278;-78
2022/04/04 10:55:36;;;;;;;4.13;3.70;;;6.30;99.90;;;;;;4966380;28;20188;-78
2022/04/04 10:58:13;;;;;;;4.07;3.57;;;6.30;99.90;;;;;;4948481;28;20216;-78
2022/04/04 11:01:03;;;;;;;5.33;4.00;;;6.20;99.90;;;;;;4965894;28;20185;-79
2022/04/04 11:03:38;;;;;;;5.90;4.90;;;6.10;99.90;;;;;;4950616;28;20279;-79
2022/04/04 11:09:05;;;;;;;4.40;3.87;;;6.00;99.90;;;;;;4968257;28;20709;-79
2022/04/04 11:11:49;;;;;;;5.80;4.33;;;5.70;99.90;;;;;;4968269;28;20234;-79
2022/04/04 11:14:54;;;;;;;5.07;3.80;;;5.60;99.90;;;;;;4941683;28;20177;-80
2022/04/04 11:17:30;;;;;;;5.10;4.13;;;5.60;99.90;;;;;;4950638;28;20209;-79
2022/04/04 11:20:10;;;;;;;5.70;4.00;;;5.50;99.90;;;;;;4967188;28;20237;-79
2022/04/04 11:22:51;;;;;;;4.87;3.63;;;5.60;99.90;;;;;;4941325;28;20189;-79
2022/04/04 11:25:19;;;;;;;3.93;3.43;;;5.60;99.90;;;;;;4967098;28;20177;-78
2022/04/04 11:27:49;;;;;;;5.07;3.53;;;5.70;99.90;;;;;;4967258;28;20205;-79
2022/04/04 11:30:17;;;;;;;5.07;3.40;;;5.60;99.90;;;;;;4970871;28;20191;-78
2022/04/04 11:32:44;;;;;;;6.63;3.77;;;5.60;99.90;;;;;;4954096;28;20805;-78
2022/04/04 11:35:11;;;;;;;4.23;3.67;;;5.60;99.90;;;;;;4971131;28;20184;-79
2022/04/04 11:37:46;;;;;;;5.77;3.87;;;5.50;99.90;;;;;;4970725;28;20665;-79
2022/04/04 11:40:18;;;;;;;3.83;3.40;;;5.60;99.90;;;;;;4969546;28;20185;-78
2022/04/04 11:42:47;;;;;;;6.70;3.73;;;5.50;99.90;;;;;;4970271;28;20592;-78
2022/04/04 11:45:18;;;;;;;4.70;3.90;;;5.60;99.90;;;;;;4949370;28;20229;-75
2022/04/04 11:47:52;;;;;;;4.10;3.70;;;5.50;99.90;;;;;;4965642;28;20864;-78
2022/04/04 11:50:19;;;;;;;5.30;3.50;;;5.60;99.90;;;;;;4948211;28;20192;-77
2022/04/04 11:52:47;;;;;;;4.60;3.70;;;5.50;99.90;;;;;;4948440;28;20208;-78
2022/04/04 11:55:18;;;;;;;4.10;3.57;;;5.40;99.90;;;;;;4965097;28;20847;-77
2022/04/04 11:57:49;;;;;;;6.00;4.20;;;5.30;99.90;;;;;;4947792;28;20662;-78
2022/04/04 12:00:20;;;;;;;5.03;4.13;;;5.20;99.90;;;;;;4966235;28;20166;-77
2022/04/04 12:02:47;;;;;;;4.83;4.13;;;5.00;99.90;;;;;;4966257;28;20185;-77
2022/04/04 12:05:14;;;;;;;5.40;3.57;;;4.90;99.90;;;;;;4966830;28;20185;-77
2022/04/04 12:07:41;;;;;;;5.17;3.90;;;5.00;99.90;;;;;;4948556;28;20177;-77
2022/04/04 12:10:07;;;;;;;5.27;4.20;;;5.00;99.90;;;;;;4965598;28;20215;-78
2022/04/04 12:12:33;;;;;;;5.77;4.17;;;5.10;99.90;;;;;;4963837;28;20469;-78
2022/04/04 12:14:59;;;;;;;8.10;4.40;;;5.10;99.90;;;;;;4960147;28;20188;-77
2022/04/04 12:17:25;;;;;;;5.13;3.37;;;5.10;99.90;;;;;;4944135;28;20188;-78
2022/04/04 12:19:52;;;;;;;8.57;4.13;;;4.90;99.90;;;;;;4965213;28;20173;-77
2022/04/04 12:25:11;;;;;;;6.70;4.73;;;4.90;99.90;;;;;;4965047;28;20197;-78
2022/04/04 12:28:00;;;;;;;5.43;4.60;;;4.80;99.90;;;;;;4965154;28;20268;-78
2022/04/04 12:30:36;;;;;;;6.27;4.50;;;4.80;99.90;;;;;;4965480;28;20185;-78
2022/04/04 12:33:15;;;;;;;4.97;4.30;;;4.70;99.90;;;;;;4945853;28;20278;-78
2022/04/04 12:35:41;;;;;;;6.13;4.43;;;4.70;99.90;;;;;;4946963;28;20181;-77
2022/04/04 12:38:08;;;;;;;5.53;4.53;;;4.60;99.90;;;;;;4965626;28;20576;-79
2022/04/04 12:40:34;;;;;;;6.47;4.73;;;4.60;99.90;;;;;;4949343;28;20268;-79
2022/04/04 12:43:08;;;;;;;6.03;4.60;;;4.60;99.90;;;;;;4968324;28;20293;-78
2022/04/04 12:45:34;;;;;;;6.97;5.07;;;4.70;99.90;;;;;;4949063;28;20284;-78
2022/04/04 12:48:10;;;;;;;6.17;4.87;;;4.70;99.90;;;;;;4966669;28;20706;-80
2022/04/04 12:50:47;;;;;;;7.10;4.23;;;4.80;99.90;;;;;;4949839;28;20192;-78
2022/04/04 12:53:13;;;;;;;5.50;4.50;;;4.80;99.90;;;;;;4955168;28;20192;-79
2022/04/04 12:55:43;;;;;;;5.03;4.47;;;4.80;99.90;;;;;;4976429;28;20176;-78
2022/04/04 12:58:23;;;;;;;6.40;4.93;;;4.80;99.90;;;;;;4957616;28;20205;-79
2022/04/04 13:00:53;;;;;;;6.57;5.40;;;4.70;99.90;;;;;;4973085;28;20512;-79
2022/04/04 13:03:26;;;;;;;6.23;5.00;;;4.70;99.90;;;;;;4974081;28;20207;-79
2022/04/04 13:05:56;;;;;;;4.67;4.13;;;4.60;99.90;;;;;;4975100;28;20181;-77